sensor_id;sensor_type;location;lat;lon;timestamp;temperature;humidity
33881;DHT22;20172;47.530;10.256;2023-12-20T00:00:08;5.70;99.90
33881;DHT22;20172;47.530;10.256;2023-12-20T00:02:33;5.70;99.90
33881;DHT22;20172;47.530;10.256;2023-12-20T00:05:02;5.60;99.90
33881;DHT22;20172;47.530;10.256;2023-12-20T00:07:27;5.60;99.90
33881;DHT22;20172;47.530;10.256;2023-12-20T00:09:53;5.50;99.90
33881;DHT22;20172;47.530;10.256;2023-12-20T00:12:18;5.50;99.90
33881;DHT22;20172;47.530;10.256;2023-12-20T00:14:44;5.40;99.90
33881;DHT22;20172;47.530;10.256;2023-12-20T00:17:09;5.30;99.90
33881;DHT22;20172;47.530;10.256;2023-12-20T00:19:35;5.40;99.90
33881;DHT22;20172;47.530;10.256;2023-12-20T00:22:00;5.50;99.90
33881;DHT22;20172;47.530;10.256;2023-12-20T00:24:26;5.60;99.90
33881;DHT22;20172;47.530;10.256;2023-12-20T00:26:52;5.70;99.90
33881;DHT22;20172;47.530;10.256;2023-12-20T00:29:17;5.80;99.90
33881;DHT22;20172;47.530;10.256;2023-12-20T00:31:43;5.80;99.90
33881;DHT22;20172;47.530;10.256;2023-12-20T00:34:09;5.90;99.90
33881;DHT22;20172;47.530;10.256;2023-12-20T00:36:34;5.90;99.90
33881;DHT22;20172;47.530;10.256;2023-12-20T00:39:00;6.00;99.90
33881;DHT22;20172;47.530;10.256;2023-12-20T00:41:25;5.90;99.90
33881;DHT22;20172;47.530;10.256;2023-12-20T00:43:54;5.90;99.90
33881;DHT22;20172;47.530;10.256;2023-12-20T00:46:19;5.90;99.90
33881;DHT22;20172;47.530;10.256;2023-12-20T00:48:45;5.90;99.90
33881;DHT22;20172;47.530;10.256;2023-12-20T00:51:11;5.90;99.90
33881;DHT22;20172;47.530;10.256;2023-12-20T00:53:36;5.90;99.90
33881;DHT22;20172;47.530;10.256;2023-12-20T00:56:02;5.90;99.90
33881;DHT22;20172;47.530;10.256;2023-12-20T00:58:28;5.80;99.90
33881;DHT22;20172;47.530;10.256;2023-12-20T01:00:53;5.80;99.90
33881;DHT22;20172;47.530;10.256;2023-12-20T01:03:19;5.80;99.90
33881;DHT22;20172;47.530;10.256;2023-12-20T01:05:44;5.80;99.90
33881;DHT22;20172;47.530;10.256;2023-12-20T01:08:10;5.80;99.90
33881;DHT22;20172;47.530;10.256;2023-12-20T01:10:35;5.80;99.90
33881;DHT22;20172;47.530;10.256;2023-12-20T01:13:01;5.80;99.90
33881;DHT22;20172;47.530;10.256;2023-12-20T01:15:26;5.80;99.90
33881;DHT22;20172;47.530;10.256;2023-12-20T01:17:52;5.80;99.90
33881;DHT22;20172;47.530;10.256;2023-12-20T01:20:17;5.80;99.90
33881;DHT22;20172;47.530;10.256;2023-12-20T01:22:45;5.70;99.90
33881;DHT22;20172;47.530;10.256;2023-12-20T01:25:11;5.70;99.90
33881;DHT22;20172;47.530;10.256;2023-12-20T01:27:36;5.70;99.90
33881;DHT22;20172;47.530;10.256;2023-12-20T01:30:02;5.70;99.90
33881;DHT22;20172;47.530;10.256;2023-12-20T01:32:28;5.70;99.90
33881;DHT22;20172;47.530;10.256;2023-12-20T01:34:53;5.70;99.90
33881;DHT22;20172;47.530;10.256;2023-12-20T01:37:19;5.70;99.90
33881;DHT22;20172;47.530;10.256;2023-12-20T01:39:44;5.60;99.90
33881;DHT22;20172;47.530;10.256;2023-12-20T01:42:10;5.60;99.90
33881;DHT22;20172;47.530;10.256;2023-12-20T01:44:35;5.60;99.90
33881;DHT22;20172;47.530;10.256;2023-12-20T01:47:01;5.60;99.90
33881;DHT22;20172;47.530;10.256;2023-12-20T01:49:26;5.60;99.90
33881;DHT22;20172;47.530;10.256;2023-12-20T01:51:52;5.60;99.90
33881;DHT22;20172;47.530;10.256;2023-12-20T01:54:18;5.50;99.90
33881;DHT22;20172;47.530;10.256;2023-12-20T01:56:44;5.60;99.90
33881;DHT22;20172;47.530;10.256;2023-12-20T01:59:10;5.60;99.90
33881;DHT22;20172;47.530;10.256;2023-12-20T02:01:36;5.60;99.90
33881;DHT22;20172;47.530;10.256;2023-12-20T02:04:01;5.70;99.90
33881;DHT22;20172;47.530;10.256;2023-12-20T02:06:30;5.70;99.90
33881;DHT22;20172;47.530;10.256;2023-12-20T02:08:58;5.60;99.90
33881;DHT22;20172;47.530;10.256;2023-12-20T02:11:25;5.40;99.90
33881;DHT22;20172;47.530;10.256;2023-12-20T02:13:50;5.40;99.90
33881;DHT22;20172;47.530;10.256;2023-12-20T02:16:16;5.40;99.90
33881;DHT22;20172;47.530;10.256;2023-12-20T02:18:42;5.50;99.90
33881;DHT22;20172;47.530;10.256;2023-12-20T02:21:09;5.60;99.90
33881;DHT22;20172;47.530;10.256;2023-12-20T02:23:34;5.70;99.90
33881;DHT22;20172;47.530;10.256;2023-12-20T02:26:00;5.70;99.90
33881;DHT22;20172;47.530;10.256;2023-12-20T02:28:26;5.80;99.90
33881;DHT22;20172;47.530;10.256;2023-12-20T02:30:51;5.80;99.90
33881;DHT22;20172;47.530;10.256;2023-12-20T02:33:17;5.80;99.90
33881;DHT22;20172;47.530;10.256;2023-12-20T02:35:42;5.80;99.90
33881;DHT22;20172;47.530;10.256;2023-12-20T02:38:08;5.80;99.90
33881;DHT22;20172;47.530;10.256;2023-12-20T02:40:33;5.80;99.90
33881;DHT22;20172;47.530;10.256;2023-12-20T02:42:59;5.80;99.90
33881;DHT22;20172;47.530;10.256;2023-12-20T02:45:25;5.80;99.90
33881;DHT22;20172;47.530;10.256;2023-12-20T02:47:51;5.70;99.90
33881;DHT22;20172;47.530;10.256;2023-12-20T02:50:17;5.70;99.90
33881;DHT22;20172;47.530;10.256;2023-12-20T02:52:44;5.80;99.90
33881;DHT22;20172;47.530;10.256;2023-12-20T02:55:09;5.80;99.90
33881;DHT22;20172;47.530;10.256;2023-12-20T02:57:35;5.80;99.90
33881;DHT22;20172;47.530;10.256;2023-12-20T03:00:01;5.80;99.90
33881;DHT22;20172;47.530;10.256;2023-12-20T03:02:27;5.80;99.90
33881;DHT22;20172;47.530;10.256;2023-12-20T03:04:55;5.80;99.90
33881;DHT22;20172;47.530;10.256;2023-12-20T03:07:21;5.80;99.90
33881;DHT22;20172;47.530;10.256;2023-12-20T03:09:46;5.80;99.90
33881;DHT22;20172;47.530;10.256;2023-12-20T03:12:12;5.80;99.90
33881;DHT22;20172;47.530;10.256;2023-12-20T03:14:38;5.80;99.90
33881;DHT22;20172;47.530;10.256;2023-12-20T03:17:03;5.80;99.90
33881;DHT22;20172;47.530;10.256;2023-12-20T03:19:29;5.80;99.90
33881;DHT22;20172;47.530;10.256;2023-12-20T03:21:57;5.80;99.90
33881;DHT22;20172;47.530;10.256;2023-12-20T03:24:26;5.80;99.90
33881;DHT22;20172;47.530;10.256;2023-12-20T03:26:51;5.80;99.90
33881;DHT22;20172;47.530;10.256;2023-12-20T03:29:17;5.80;99.90
33881;DHT22;20172;47.530;10.256;2023-12-20T03:31:42;5.80;99.90
33881;DHT22;20172;47.530;10.256;2023-12-20T03:34:08;5.70;99.90
33881;DHT22;20172;47.530;10.256;2023-12-20T03:36:33;5.70;99.90
33881;DHT22;20172;47.530;10.256;2023-12-20T03:38:59;5.70;99.90
33881;DHT22;20172;47.530;10.256;2023-12-20T03:41:24;5.70;99.90
33881;DHT22;20172;47.530;10.256;2023-12-20T03:43:50;5.70;99.90
33881;DHT22;20172;47.530;10.256;2023-12-20T03:46:15;5.70;99.90
33881;DHT22;20172;47.530;10.256;2023-12-20T03:48:41;5.80;99.90
33881;DHT22;20172;47.530;10.256;2023-12-20T03:51:06;5.80;99.90
33881;DHT22;20172;47.530;10.256;2023-12-20T03:53:32;5.90;99.90
33881;DHT22;20172;47.530;10.256;2023-12-20T03:55:57;5.90;99.90
33881;DHT22;20172;47.530;10.256;2023-12-20T03:58:23;6.00;99.90
33881;DHT22;20172;47.530;10.256;2023-12-20T04:00:48;6.00;99.90
33881;DHT22;20172;47.530;10.256;2023-12-20T04:03:14;5.90;99.90
33881;DHT22;20172;47.530;10.256;2023-12-20T04:05:40;5.90;99.90
33881;DHT22;20172;47.530;10.256;2023-12-20T04:08:06;5.90;99.90
33881;DHT22;20172;47.530;10.256;2023-12-20T04:10:32;6.00;99.90
33881;DHT22;20172;47.530;10.256;2023-12-20T04:12:57;6.00;99.90
33881;DHT22;20172;47.530;10.256;2023-12-20T04:15:26;6.00;99.90
33881;DHT22;20172;47.530;10.256;2023-12-20T04:17:51;6.10;99.90
33881;DHT22;20172;47.530;10.256;2023-12-20T04:20:19;6.10;99.90
33881;DHT22;20172;47.530;10.256;2023-12-20T04:22:45;6.20;99.90
33881;DHT22;20172;47.530;10.256;2023-12-20T04:25:10;6.30;99.90
33881;DHT22;20172;47.530;10.256;2023-12-20T04:27:36;6.30;99.90
33881;DHT22;20172;47.530;10.256;2023-12-20T04:30:02;6.30;99.90
33881;DHT22;20172;47.530;10.256;2023-12-20T04:32:27;6.30;99.90
33881;DHT22;20172;47.530;10.256;2023-12-20T04:34:53;6.30;99.90
33881;DHT22;20172;47.530;10.256;2023-12-20T04:37:18;6.30;99.90
33881;DHT22;20172;47.530;10.256;2023-12-20T04:39:44;6.40;99.90
33881;DHT22;20172;47.530;10.256;2023-12-20T04:42:09;6.30;99.90
33881;DHT22;20172;47.530;10.256;2023-12-20T04:44:35;6.30;99.90
33881;DHT22;20172;47.530;10.256;2023-12-20T04:47:00;6.40;99.90
33881;DHT22;20172;47.530;10.256;2023-12-20T04:49:26;6.40;99.90
33881;DHT22;20172;47.530;10.256;2023-12-20T04:51:52;6.40;99.90
33881;DHT22;20172;47.530;10.256;2023-12-20T04:54:20;6.40;99.90
33881;DHT22;20172;47.530;10.256;2023-12-20T04:56:46;6.50;99.90
33881;DHT22;20172;47.530;10.256;2023-12-20T04:59:11;6.50;99.90
33881;DHT22;20172;47.530;10.256;2023-12-20T05:01:37;6.50;99.90
33881;DHT22;20172;47.530;10.256;2023-12-20T05:04:02;6.60;99.90
33881;DHT22;20172;47.530;10.256;2023-12-20T05:06:29;6.60;99.90
33881;DHT22;20172;47.530;10.256;2023-12-20T05:08:54;6.60;99.90
33881;DHT22;20172;47.530;10.256;2023-12-20T05:11:20;6.60;99.90
33881;DHT22;20172;47.530;10.256;2023-12-20T05:13:45;6.70;99.90
33881;DHT22;20172;47.530;10.256;2023-12-20T05:16:13;6.70;99.90
33881;DHT22;20172;47.530;10.256;2023-12-20T05:18:39;6.70;99.90
33881;DHT22;20172;47.530;10.256;2023-12-20T05:21:05;6.70;99.90
33881;DHT22;20172;47.530;10.256;2023-12-20T05:23:31;6.80;99.90
33881;DHT22;20172;47.530;10.256;2023-12-20T05:25:56;6.80;99.90
33881;DHT22;20172;47.530;10.256;2023-12-20T05:28:25;6.80;99.90
33881;DHT22;20172;47.530;10.256;2023-12-20T05:30:51;6.90;99.90
33881;DHT22;20172;47.530;10.256;2023-12-20T05:33:16;6.80;99.90
33881;DHT22;20172;47.530;10.256;2023-12-20T05:35:42;6.80;99.90
33881;DHT22;20172;47.530;10.256;2023-12-20T05:38:07;6.80;99.90
33881;DHT22;20172;47.530;10.256;2023-12-20T05:40:33;6.90;99.90
33881;DHT22;20172;47.530;10.256;2023-12-20T05:42:58;6.90;99.90
33881;DHT22;20172;47.530;10.256;2023-12-20T05:45:24;6.90;99.90
33881;DHT22;20172;47.530;10.256;2023-12-20T05:47:50;6.90;99.90
33881;DHT22;20172;47.530;10.256;2023-12-20T05:50:15;6.90;99.90
33881;DHT22;20172;47.530;10.256;2023-12-20T05:52:41;6.80;99.90
33881;DHT22;20172;47.530;10.256;2023-12-20T05:55:06;6.80;99.90
33881;DHT22;20172;47.530;10.256;2023-12-20T05:57:32;6.70;99.90
33881;DHT22;20172;47.530;10.256;2023-12-20T05:59:57;6.70;99.90
33881;DHT22;20172;47.530;10.256;2023-12-20T06:02:26;6.70;99.90
33881;DHT22;20172;47.530;10.256;2023-12-20T06:04:51;6.60;99.90
33881;DHT22;20172;47.530;10.256;2023-12-20T06:07:17;6.60;99.90
33881;DHT22;20172;47.530;10.256;2023-12-20T06:09:42;6.60;99.90
33881;DHT22;20172;47.530;10.256;2023-12-20T06:12:08;6.60;99.90
33881;DHT22;20172;47.530;10.256;2023-12-20T06:14:34;6.60;99.90
33881;DHT22;20172;47.530;10.256;2023-12-20T06:17:02;6.60;99.90
33881;DHT22;20172;47.530;10.256;2023-12-20T06:19:28;6.60;99.90
33881;DHT22;20172;47.530;10.256;2023-12-20T06:21:53;6.60;99.90
33881;DHT22;20172;47.530;10.256;2023-12-20T06:24:19;6.50;99.90
33881;DHT22;20172;47.530;10.256;2023-12-20T06:26:44;6.50;99.90
33881;DHT22;20172;47.530;10.256;2023-12-20T06:29:10;6.50;99.90
33881;DHT22;20172;47.530;10.256;2023-12-20T06:31:35;6.40;99.90
33881;DHT22;20172;47.530;10.256;2023-12-20T06:34:01;6.40;99.90
33881;DHT22;20172;47.530;10.256;2023-12-20T06:36:26;6.40;99.90
33881;DHT22;20172;47.530;10.256;2023-12-20T06:38:52;6.40;99.90
33881;DHT22;20172;47.530;10.256;2023-12-20T06:41:18;6.40;99.90
33881;DHT22;20172;47.530;10.256;2023-12-20T06:43:43;6.30;99.90
33881;DHT22;20172;47.530;10.256;2023-12-20T06:46:09;6.30;99.90
33881;DHT22;20172;47.530;10.256;2023-12-20T06:48:34;6.30;99.90
33881;DHT22;20172;47.530;10.256;2023-12-20T06:51:00;6.30;99.90
33881;DHT22;20172;47.530;10.256;2023-12-20T06:53:27;6.30;99.90
33881;DHT22;20172;47.530;10.256;2023-12-20T06:55:53;6.30;99.90
33881;DHT22;20172;47.530;10.256;2023-12-20T06:58:18;6.20;99.90
33881;DHT22;20172;47.530;10.256;2023-12-20T07:00:44;6.30;99.90
33881;DHT22;20172;47.530;10.256;2023-12-20T07:03:09;6.30;99.90
33881;DHT22;20172;47.530;10.256;2023-12-20T07:05:35;6.30;99.90
33881;DHT22;20172;47.530;10.256;2023-12-20T07:08:00;6.30;99.90
33881;DHT22;20172;47.530;10.256;2023-12-20T07:10:26;6.30;99.90
33881;DHT22;20172;47.530;10.256;2023-12-20T07:12:51;6.30;99.90
33881;DHT22;20172;47.530;10.256;2023-12-20T07:15:17;6.30;99.90
33881;DHT22;20172;47.530;10.256;2023-12-20T07:17:43;6.20;99.90
33881;DHT22;20172;47.530;10.256;2023-12-20T07:20:09;6.30;99.90
33881;DHT22;20172;47.530;10.256;2023-12-20T07:22:36;6.20;99.90
33881;DHT22;20172;47.530;10.256;2023-12-20T07:25:02;6.10;99.90
33881;DHT22;20172;47.530;10.256;2023-12-20T07:27:27;5.90;99.90
33881;DHT22;20172;47.530;10.256;2023-12-20T07:29:55;5.90;99.90
33881;DHT22;20172;47.530;10.256;2023-12-20T07:32:20;5.90;99.90
33881;DHT22;20172;47.530;10.256;2023-12-20T07:34:48;5.80;99.90
33881;DHT22;20172;47.530;10.256;2023-12-20T07:37:14;5.80;99.90
33881;DHT22;20172;47.530;10.256;2023-12-20T07:39:39;5.80;99.90
33881;DHT22;20172;47.530;10.256;2023-12-20T07:42:06;5.80;99.90
33881;DHT22;20172;47.530;10.256;2023-12-20T07:44:31;5.90;99.90
33881;DHT22;20172;47.530;10.256;2023-12-20T07:46:57;5.90;99.90
33881;DHT22;20172;47.530;10.256;2023-12-20T07:49:23;5.90;99.90
33881;DHT22;20172;47.530;10.256;2023-12-20T07:51:54;6.00;99.90
33881;DHT22;20172;47.530;10.256;2023-12-20T07:54:20;6.00;99.90
33881;DHT22;20172;47.530;10.256;2023-12-20T07:56:46;6.00;99.90
33881;DHT22;20172;47.530;10.256;2023-12-20T07:59:11;6.10;99.90
33881;DHT22;20172;47.530;10.256;2023-12-20T08:01:37;6.10;99.90
33881;DHT22;20172;47.530;10.256;2023-12-20T08:04:03;6.00;99.90
33881;DHT22;20172;47.530;10.256;2023-12-20T08:06:28;6.00;99.90
33881;DHT22;20172;47.530;10.256;2023-12-20T08:08:54;6.00;99.90
33881;DHT22;20172;47.530;10.256;2023-12-20T08:11:19;6.10;99.90
33881;DHT22;20172;47.530;10.256;2023-12-20T08:13:45;6.10;99.90
33881;DHT22;20172;47.530;10.256;2023-12-20T08:16:10;6.20;99.90
33881;DHT22;20172;47.530;10.256;2023-12-20T08:18:38;6.10;99.90
33881;DHT22;20172;47.530;10.256;2023-12-20T08:21:04;6.10;99.90
33881;DHT22;20172;47.530;10.256;2023-12-20T08:23:33;6.10;99.90
33881;DHT22;20172;47.530;10.256;2023-12-20T08:25:58;6.10;99.90
33881;DHT22;20172;47.530;10.256;2023-12-20T08:28:24;6.10;99.90
33881;DHT22;20172;47.530;10.256;2023-12-20T08:30:49;6.10;99.90
33881;DHT22;20172;47.530;10.256;2023-12-20T08:33:18;6.10;99.90
33881;DHT22;20172;47.530;10.256;2023-12-20T08:35:44;6.00;99.90
33881;DHT22;20172;47.530;10.256;2023-12-20T08:38:09;6.00;99.90
33881;DHT22;20172;47.530;10.256;2023-12-20T08:40:35;5.90;99.90
33881;DHT22;20172;47.530;10.256;2023-12-20T08:43:00;5.70;99.90
33881;DHT22;20172;47.530;10.256;2023-12-20T08:45:26;5.70;99.90
33881;DHT22;20172;47.530;10.256;2023-12-20T08:47:51;5.60;99.90
33881;DHT22;20172;47.530;10.256;2023-12-20T08:50:17;5.60;99.90
33881;DHT22;20172;47.530;10.256;2023-12-20T08:52:43;5.60;99.90
33881;DHT22;20172;47.530;10.256;2023-12-20T08:55:09;5.60;99.90
33881;DHT22;20172;47.530;10.256;2023-12-20T08:57:38;5.60;99.90
33881;DHT22;20172;47.530;10.256;2023-12-20T09:00:03;5.60;99.90
33881;DHT22;20172;47.530;10.256;2023-12-20T09:02:29;5.60;99.90
33881;DHT22;20172;47.530;10.256;2023-12-20T09:04:55;5.60;99.90
33881;DHT22;20172;47.530;10.256;2023-12-20T09:07:24;5.70;99.90
33881;DHT22;20172;47.530;10.256;2023-12-20T09:09:50;5.70;99.90
33881;DHT22;20172;47.530;10.256;2023-12-20T09:12:17;5.70;99.90
33881;DHT22;20172;47.530;10.256;2023-12-20T09:14:42;5.80;99.90
33881;DHT22;20172;47.530;10.256;2023-12-20T09:17:08;5.80;99.90
33881;DHT22;20172;47.530;10.256;2023-12-20T09:19:34;5.90;99.90
33881;DHT22;20172;47.530;10.256;2023-12-20T09:21:59;5.90;99.90
33881;DHT22;20172;47.530;10.256;2023-12-20T09:24:25;6.00;99.90
33881;DHT22;20172;47.530;10.256;2023-12-20T09:26:50;6.10;99.90
33881;DHT22;20172;47.530;10.256;2023-12-20T09:29:16;6.20;99.90
33881;DHT22;20172;47.530;10.256;2023-12-20T09:31:42;6.30;99.90
33881;DHT22;20172;47.530;10.256;2023-12-20T09:34:09;6.40;99.90
33881;DHT22;20172;47.530;10.256;2023-12-20T09:36:34;6.50;99.90
33881;DHT22;20172;47.530;10.256;2023-12-20T09:39:01;6.60;99.90
33881;DHT22;20172;47.530;10.256;2023-12-20T09:41:28;6.70;99.90
33881;DHT22;20172;47.530;10.256;2023-12-20T09:43:55;6.80;99.90
33881;DHT22;20172;47.530;10.256;2023-12-20T09:46:22;6.90;99.90
33881;DHT22;20172;47.530;10.256;2023-12-20T09:48:49;7.00;99.90
33881;DHT22;20172;47.530;10.256;2023-12-20T09:51:15;7.10;99.90
33881;DHT22;20172;47.530;10.256;2023-12-20T09:53:40;7.20;99.90
33881;DHT22;20172;47.530;10.256;2023-12-20T09:56:07;7.30;99.90
33881;DHT22;20172;47.530;10.256;2023-12-20T09:58:36;7.30;99.90
33881;DHT22;20172;47.530;10.256;2023-12-20T10:01:01;7.30;99.90
33881;DHT22;20172;47.530;10.256;2023-12-20T10:03:33;7.30;99.90
33881;DHT22;20172;47.530;10.256;2023-12-20T10:06:01;7.30;99.90
33881;DHT22;20172;47.530;10.256;2023-12-20T10:08:31;7.30;99.90
33881;DHT22;20172;47.530;10.256;2023-12-20T10:11:01;7.30;99.90
33881;DHT22;20172;47.530;10.256;2023-12-20T10:13:32;7.30;99.90
33881;DHT22;20172;47.530;10.256;2023-12-20T10:16:18;7.30;99.90
33881;DHT22;20172;47.530;10.256;2023-12-20T10:18:47;7.30;99.90
33881;DHT22;20172;47.530;10.256;2023-12-20T10:21:16;7.40;99.90
33881;DHT22;20172;47.530;10.256;2023-12-20T10:24:01;7.30;99.90
33881;DHT22;20172;47.530;10.256;2023-12-20T10:26:39;7.30;99.90
33881;DHT22;20172;47.530;10.256;2023-12-20T10:29:11;7.40;99.90
33881;DHT22;20172;47.530;10.256;2023-12-20T10:31:36;7.40;99.90
33881;DHT22;20172;47.530;10.256;2023-12-20T10:34:09;7.60;99.90
33881;DHT22;20172;47.530;10.256;2023-12-20T10:36:35;7.70;99.90
33881;DHT22;20172;47.530;10.256;2023-12-20T10:39:01;7.70;99.90
33881;DHT22;20172;47.530;10.256;2023-12-20T10:41:29;7.70;99.90
33881;DHT22;20172;47.530;10.256;2023-12-20T10:43:56;7.80;99.90
33881;DHT22;20172;47.530;10.256;2023-12-20T10:46:22;7.80;99.90
33881;DHT22;20172;47.530;10.256;2023-12-20T10:48:47;7.90;99.90
33881;DHT22;20172;47.530;10.256;2023-12-20T10:51:14;7.90;99.90
33881;DHT22;20172;47.530;10.256;2023-12-20T15:17:41;6.70;99.90
33881;DHT22;20172;47.530;10.256;2023-12-20T15:20:06;6.60;99.90
33881;DHT22;20172;47.530;10.256;2023-12-20T15:22:35;6.40;99.90
33881;DHT22;20172;47.530;10.256;2023-12-20T15:25:01;6.30;99.90
33881;DHT22;20172;47.530;10.256;2023-12-20T15:30:20;6.10;99.90
33881;DHT22;20172;47.530;10.256;2023-12-20T15:32:46;6.10;99.90
33881;DHT22;20172;47.530;10.256;2023-12-20T15:35:11;6.10;99.90
33881;DHT22;20172;47.530;10.256;2023-12-20T15:37:38;6.00;99.90
33881;DHT22;20172;47.530;10.256;2023-12-20T15:40:04;6.00;99.90
33881;DHT22;20172;47.530;10.256;2023-12-20T15:42:29;5.90;99.90
33881;DHT22;20172;47.530;10.256;2023-12-20T15:44:57;5.90;99.90
33881;DHT22;20172;47.530;10.256;2023-12-20T15:47:22;5.90;99.90
33881;DHT22;20172;47.530;10.256;2023-12-20T15:49:48;5.80;99.90
33881;DHT22;20172;47.530;10.256;2023-12-20T15:52:14;5.80;99.90
33881;DHT22;20172;47.530;10.256;2023-12-20T15:54:40;5.90;99.90
33881;DHT22;20172;47.530;10.256;2023-12-20T15:57:06;5.90;99.90
33881;DHT22;20172;47.530;10.256;2023-12-20T15:59:32;5.80;99.90
33881;DHT22;20172;47.530;10.256;2023-12-20T16:01:57;5.80;99.90
33881;DHT22;20172;47.530;10.256;2023-12-20T16:04:23;5.80;99.90
33881;DHT22;20172;47.530;10.256;2023-12-20T16:06:48;5.80;99.90
33881;DHT22;20172;47.530;10.256;2023-12-20T16:09:14;5.80;99.90
33881;DHT22;20172;47.530;10.256;2023-12-20T16:11:40;5.70;99.90
33881;DHT22;20172;47.530;10.256;2023-12-20T16:14:07;5.80;99.90
33881;DHT22;20172;47.530;10.256;2023-12-20T16:16:34;5.80;99.90
33881;DHT22;20172;47.530;10.256;2023-12-20T16:19:00;5.80;99.90
33881;DHT22;20172;47.530;10.256;2023-12-20T16:21:26;5.70;99.90
33881;DHT22;20172;47.530;10.256;2023-12-20T16:23:51;5.70;99.90
33881;DHT22;20172;47.530;10.256;2023-12-20T16:26:17;5.60;99.90
33881;DHT22;20172;47.530;10.256;2023-12-20T16:28:42;5.70;99.90
33881;DHT22;20172;47.530;10.256;2023-12-20T16:31:08;5.70;99.90
33881;DHT22;20172;47.530;10.256;2023-12-20T16:33:33;5.70;99.90
33881;DHT22;20172;47.530;10.256;2023-12-20T16:35:59;5.70;99.90
33881;DHT22;20172;47.530;10.256;2023-12-20T16:38:24;5.70;99.90
33881;DHT22;20172;47.530;10.256;2023-12-20T16:40:50;5.80;99.90
33881;DHT22;20172;47.530;10.256;2023-12-20T16:43:16;5.80;99.90
33881;DHT22;20172;47.530;10.256;2023-12-20T16:45:41;5.80;99.90
33881;DHT22;20172;47.530;10.256;2023-12-20T16:48:06;5.80;99.90
33881;DHT22;20172;47.530;10.256;2023-12-20T16:50:32;5.80;99.90
33881;DHT22;20172;47.530;10.256;2023-12-20T16:52:58;5.80;99.90
33881;DHT22;20172;47.530;10.256;2023-12-20T16:55:23;5.80;99.90
33881;DHT22;20172;47.530;10.256;2023-12-20T16:57:49;5.70;99.90
33881;DHT22;20172;47.530;10.256;2023-12-20T17:00:14;5.70;99.90
33881;DHT22;20172;47.530;10.256;2023-12-20T17:02:40;5.80;99.90
33881;DHT22;20172;47.530;10.256;2023-12-20T17:05:07;5.80;99.90
33881;DHT22;20172;47.530;10.256;2023-12-20T17:07:32;5.90;99.90
33881;DHT22;20172;47.530;10.256;2023-12-20T17:09:58;5.90;99.90
33881;DHT22;20172;47.530;10.256;2023-12-20T17:12:23;5.90;99.90
33881;DHT22;20172;47.530;10.256;2023-12-20T17:14:50;5.90;99.90
33881;DHT22;20172;47.530;10.256;2023-12-20T17:17:16;5.90;99.90
33881;DHT22;20172;47.530;10.256;2023-12-20T17:19:41;5.90;99.90
33881;DHT22;20172;47.530;10.256;2023-12-20T17:22:07;5.80;99.90
33881;DHT22;20172;47.530;10.256;2023-12-20T17:24:33;5.80;99.90
33881;DHT22;20172;47.530;10.256;2023-12-20T17:26:59;5.80;99.90
33881;DHT22;20172;47.530;10.256;2023-12-20T17:29:25;5.70;99.90
33881;DHT22;20172;47.530;10.256;2023-12-20T17:31:50;5.70;99.90
33881;DHT22;20172;47.530;10.256;2023-12-20T17:34:16;5.80;99.90
33881;DHT22;20172;47.530;10.256;2023-12-20T17:36:41;5.80;99.90
33881;DHT22;20172;47.530;10.256;2023-12-20T17:39:07;5.70;99.90
33881;DHT22;20172;47.530;10.256;2023-12-20T17:41:33;5.70;99.90
33881;DHT22;20172;47.530;10.256;2023-12-20T17:44:01;5.60;99.90
33881;DHT22;20172;47.530;10.256;2023-12-20T17:46:26;5.60;99.90
33881;DHT22;20172;47.530;10.256;2023-12-20T17:48:52;5.70;99.90
33881;DHT22;20172;47.530;10.256;2023-12-20T17:51:17;5.70;99.90
33881;DHT22;20172;47.530;10.256;2023-12-20T17:53:43;5.70;99.90
33881;DHT22;20172;47.530;10.256;2023-12-20T17:56:08;5.70;99.90
33881;DHT22;20172;47.530;10.256;2023-12-20T17:58:34;5.50;99.90
33881;DHT22;20172;47.530;10.256;2023-12-20T18:01:00;5.50;99.90
33881;DHT22;20172;47.530;10.256;2023-12-20T18:03:25;5.40;99.90
33881;DHT22;20172;47.530;10.256;2023-12-20T18:05:51;5.40;99.90
33881;DHT22;20172;47.530;10.256;2023-12-20T18:08:16;5.50;99.90
33881;DHT22;20172;47.530;10.256;2023-12-20T18:10:42;5.50;99.90
33881;DHT22;20172;47.530;10.256;2023-12-20T18:13:07;5.50;99.90
33881;DHT22;20172;47.530;10.256;2023-12-20T18:15:33;5.40;99.90
33881;DHT22;20172;47.530;10.256;2023-12-20T18:17:58;5.30;99.90
33881;DHT22;20172;47.530;10.256;2023-12-20T18:20:24;5.30;99.90
33881;DHT22;20172;47.530;10.256;2023-12-20T18:22:50;5.30;99.90
33881;DHT22;20172;47.530;10.256;2023-12-20T18:25:15;5.30;99.90
33881;DHT22;20172;47.530;10.256;2023-12-20T18:27:41;5.30;99.90
33881;DHT22;20172;47.530;10.256;2023-12-20T18:30:06;5.30;99.90
33881;DHT22;20172;47.530;10.256;2023-12-20T18:32:32;5.30;99.90
33881;DHT22;20172;47.530;10.256;2023-12-20T18:34:59;5.30;99.90
33881;DHT22;20172;47.530;10.256;2023-12-20T18:37:25;5.30;99.90
33881;DHT22;20172;47.530;10.256;2023-12-20T18:39:53;5.30;99.90
33881;DHT22;20172;47.530;10.256;2023-12-20T18:42:25;5.30;99.90
33881;DHT22;20172;47.530;10.256;2023-12-20T18:44:50;5.30;99.90
33881;DHT22;20172;47.530;10.256;2023-12-20T18:47:16;5.30;99.90
33881;DHT22;20172;47.530;10.256;2023-12-20T18:49:41;5.30;99.90
33881;DHT22;20172;47.530;10.256;2023-12-20T18:52:07;5.40;99.90
33881;DHT22;20172;47.530;10.256;2023-12-20T18:54:33;5.40;99.90
33881;DHT22;20172;47.530;10.256;2023-12-20T18:56:58;5.40;99.90
33881;DHT22;20172;47.530;10.256;2023-12-20T18:59:24;5.40;99.90
33881;DHT22;20172;47.530;10.256;2023-12-20T19:01:53;5.30;99.90
33881;DHT22;20172;47.530;10.256;2023-12-20T19:04:18;5.20;99.90
33881;DHT22;20172;47.530;10.256;2023-12-20T19:06:44;5.20;99.90
33881;DHT22;20172;47.530;10.256;2023-12-20T19:09:09;5.10;99.90
33881;DHT22;20172;47.530;10.256;2023-12-20T19:11:35;5.10;99.90
33881;DHT22;20172;47.530;10.256;2023-12-20T19:14:01;5.10;99.90
33881;DHT22;20172;47.530;10.256;2023-12-20T19:16:27;5.10;99.90
33881;DHT22;20172;47.530;10.256;2023-12-20T19:18:53;5.10;99.90
33881;DHT22;20172;47.530;10.256;2023-12-20T19:21:19;5.20;99.90
33881;DHT22;20172;47.530;10.256;2023-12-20T19:23:46;5.10;99.90
33881;DHT22;20172;47.530;10.256;2023-12-20T19:26:12;5.10;99.90
33881;DHT22;20172;47.530;10.256;2023-12-20T19:28:38;5.20;99.90
33881;DHT22;20172;47.530;10.256;2023-12-20T19:31:04;5.20;99.90
33881;DHT22;20172;47.530;10.256;2023-12-20T19:33:37;5.10;99.90
33881;DHT22;20172;47.530;10.256;2023-12-20T19:36:06;5.10;99.90
33881;DHT22;20172;47.530;10.256;2023-12-20T19:38:33;4.80;99.90
33881;DHT22;20172;47.530;10.256;2023-12-20T19:40:59;4.80;99.90
33881;DHT22;20172;47.530;10.256;2023-12-20T19:43:25;4.80;99.90
33881;DHT22;20172;47.530;10.256;2023-12-20T19:45:50;4.80;99.90
33881;DHT22;20172;47.530;10.256;2023-12-20T19:48:16;4.70;99.90